createdAt,value
2023-04-19T00:00:40.207Z,86.95
2023-04-19T00:04:44.924Z,87.80
2023-04-19T00:08:46.434Z,87.49
2023-04-19T00:12:47.828Z,87.73
2023-04-19T00:16:49.250Z,88.38
2023-04-19T00:20:52.016Z,88.47
2023-04-19T00:24:53.781Z,88.86
2023-04-19T00:28:55.141Z,89.19
2023-04-19T00:32:56.522Z,89.13
2023-04-19T00:36:59.234Z,89.73
2023-04-19T00:41:00.619Z,89.56
2023-04-19T00:45:02.099Z,89.73
2023-04-19T00:49:03.480Z,89.62
2023-04-19T00:53:06.488Z,89.37
2023-04-19T00:57:07.822Z,89.22
2023-04-19T01:01:09.193Z,89.66
2023-04-19T01:05:10.559Z,89.50
2023-04-19T01:09:13.305Z,89.97
2023-04-19T01:13:14.671Z,89.50
2023-04-19T01:17:16.171Z,89.47
2023-04-19T01:21:17.532Z,89.56
2023-04-19T01:25:20.268Z,89.56
2023-04-19T01:29:21.634Z,89.94
2023-04-19T01:33:23.011Z,90.54
2023-04-19T01:37:24.360Z,91.02
2023-04-19T01:41:27.317Z,90.46
2023-04-19T01:45:28.788Z,89.95
2023-04-19T01:49:30.159Z,89.53
2023-04-19T01:53:31.500Z,90.90
2023-04-19T01:57:34.226Z,91.07
2023-04-19T02:01:35.586Z,90.85
2023-04-19T02:05:38.666Z,90.38
2023-04-19T02:09:40.062Z,90.61
2023-04-19T02:13:43.062Z,90.40
2023-04-19T02:17:44.524Z,90.79
2023-04-19T02:21:45.878Z,90.88
2023-04-19T02:25:47.225Z,90.78
2023-04-19T02:29:49.979Z,91.14
2023-04-19T02:33:51.371Z,91.60
2023-04-19T02:37:52.749Z,91.46
2023-04-19T02:41:54.085Z,91.06
2023-04-19T02:45:56.891Z,91.03
2023-04-19T02:49:59.520Z,90.49
2023-04-19T02:54:00.865Z,91.71
2023-04-19T02:58:02.213Z,91.65
2023-04-19T03:02:05.032Z,91.47
2023-04-19T03:06:06.686Z,92.66
2023-04-19T03:10:08.656Z,92.84
2023-04-19T03:14:10.041Z,93.48
2023-04-19T03:18:12.743Z,93.41
2023-04-19T03:22:14.084Z,92.20
2023-04-19T03:26:15.438Z,93.12
2023-04-19T03:30:16.920Z,92.98
2023-04-19T03:34:19.697Z,94.06
2023-04-19T03:38:21.049Z,94.25
2023-04-19T03:42:22.453Z,93.64
2023-04-19T03:46:23.961Z,93.24
2023-04-19T03:50:26.755Z,93.74
2023-04-19T03:54:28.140Z,94.41
2023-04-19T03:58:29.487Z,94.63
2023-04-19T04:02:31.009Z,94.96
2023-04-19T04:06:33.838Z,93.85
2023-04-19T04:10:35.228Z,94.29
2023-04-19T04:14:36.580Z,93.39
2023-04-19T04:18:37.922Z,92.49
2023-04-19T04:22:42.277Z,92.37
2023-04-19T04:26:43.644Z,92.51
2023-04-19T04:30:45.174Z,92.94
2023-04-19T04:34:46.573Z,93.47
2023-04-19T04:38:49.452Z,93.05
2023-04-19T04:42:50.869Z,92.37
2023-04-19T04:46:52.215Z,92.68
2023-04-19T04:50:53.560Z,92.83
2023-04-19T04:54:56.284Z,92.46
2023-04-19T04:58:57.618Z,92.30
2023-04-19T05:02:59.711Z,92.91
2023-04-19T05:07:01.129Z,92.65
2023-04-19T05:11:03.896Z,92.34
2023-04-19T05:15:05.818Z,91.12
2023-04-19T05:19:07.192Z,92.13
2023-04-19T05:23:08.521Z,91.60
2023-04-19T05:27:11.283Z,91.45
2023-04-19T05:31:12.872Z,91.31
2023-04-19T05:35:14.316Z,91.26
2023-04-19T05:39:15.732Z,91.23
2023-04-19T05:43:18.529Z,91.42
2023-04-19T05:47:19.982Z,91.67
2023-04-19T05:51:21.404Z,92.08
2023-04-19T05:55:22.881Z,92.27
2023-04-19T05:59:25.588Z,91.81
2023-04-19T06:03:29.069Z,92.48
2023-04-19T06:07:36.066Z,92.83
2023-04-19T06:11:49.965Z,93.30
2023-04-19T06:15:53.848Z,93.69
2023-04-19T06:19:55.262Z,93.47
2023-04-19T06:23:56.624Z,93.47
2023-04-19T06:27:58.065Z,93.02
2023-04-19T06:32:00.824Z,92.88
2023-04-19T06:36:02.203Z,93.02
2023-04-19T06:40:03.906Z,93.38
2023-04-19T06:44:05.515Z,93.62
2023-04-19T06:48:08.314Z,93.54
2023-04-19T06:52:09.681Z,93.85
2023-04-19T06:56:11.047Z,93.63
2023-04-19T07:00:13.028Z,93.63
2023-04-19T07:04:16.148Z,93.22
2023-04-19T07:08:18.072Z,92.51
2023-04-19T07:12:19.636Z,92.74
2023-04-19T07:16:21.082Z,92.79
2023-04-19T07:20:24.012Z,92.62
2023-04-19T07:24:25.407Z,92.59
2023-04-19T07:28:28.490Z,91.90
2023-04-19T07:32:30.714Z,92.04
2023-04-19T07:36:33.460Z,91.89
2023-04-19T07:40:34.801Z,91.40
2023-04-19T07:44:36.404Z,91.62
2023-04-19T07:48:37.901Z,91.93
2023-04-19T07:52:40.647Z,91.98
2023-04-19T07:56:42.014Z,91.31
2023-04-19T08:00:43.405Z,90.72
2023-04-19T08:04:45.179Z,90.80
2023-04-19T08:08:49.722Z,90.08
2023-04-19T08:13:05.005Z,89.89
2023-04-19T08:17:24.314Z,89.82
2023-04-19T08:21:34.612Z,89.49
2023-04-19T08:25:43.653Z,89.57
2023-04-19T08:29:45.088Z,89.34
2023-04-19T08:33:46.895Z,89.84
2023-04-19T08:37:48.304Z,89.41
2023-04-19T08:42:02.569Z,88.87
2023-04-19T08:46:07.716Z,88.14
2023-04-19T08:50:24.180Z,88.03
2023-04-19T08:54:30.185Z,88.10
2023-04-19T09:02:47.667Z,89.38
2023-04-19T09:06:49.361Z,87.96
2023-04-19T09:10:54.261Z,88.69
2023-04-19T09:19:15.360Z,88.90
2023-04-19T09:23:23.158Z,89.81
2023-04-19T09:27:28.170Z,88.47
2023-04-19T09:31:47.826Z,88.69
2023-04-19T09:35:51.785Z,88.01
2023-04-19T09:39:53.258Z,87.56
2023-04-19T09:48:16.934Z,87.24
2023-04-19T09:52:18.299Z,86.63
2023-04-19T09:56:19.640Z,87.67
2023-04-19T10:00:22.180Z,87.44
2023-04-19T10:04:38.484Z,87.60
2023-04-19T10:08:48.992Z,88.17
2023-04-19T10:16:57.064Z,87.21
2023-04-19T10:21:01.498Z,87.23
2023-04-19T10:25:09.407Z,85.36
2023-04-19T10:29:12.333Z,85.52
2023-04-19T10:33:24.056Z,85.86
2023-04-19T10:37:26.773Z,86.19
2023-04-19T10:41:48.324Z,86.85
2023-04-19T10:45:49.942Z,85.55
2023-04-19T10:49:51.368Z,85.76
2023-04-19T10:53:55.117Z,85.48
2023-04-19T10:58:03.418Z,86.82
2023-04-19T11:02:05.809Z,86.33
2023-04-19T11:06:16.868Z,87.24
2023-04-19T11:10:29.470Z,87.38
2023-04-19T11:14:31.813Z,87.21
2023-04-19T11:18:33.212Z,87.29
2023-04-19T11:22:35.625Z,86.63
2023-04-19T11:26:38.444Z,86.32
2023-04-19T11:30:39.891Z,86.40
2023-04-19T11:34:41.367Z,85.24
2023-04-19T11:38:46.241Z,82.28
2023-04-19T11:42:55.305Z,81.98
2023-04-19T11:47:00.582Z,77.50
2023-04-19T11:51:02.234Z,72.91
2023-04-19T11:55:17.847Z,73.49
2023-04-19T11:59:20.682Z,73.42
2023-04-19T12:03:25.516Z,74.81
2023-04-19T12:07:27.705Z,75.46
2023-04-19T12:11:42.082Z,72.48
2023-04-19T12:15:45.326Z,71.86
2023-04-19T12:19:47.405Z,72.00
2023-04-19T12:23:48.792Z,68.62
2023-04-19T12:27:50.120Z,66.76
2023-04-19T12:31:52.925Z,68.81
2023-04-19T12:35:54.395Z,67.16
2023-04-19T12:39:56.382Z,67.44
2023-04-19T12:43:57.787Z,66.73
2023-04-19T12:48:00.527Z,67.12
2023-04-19T12:52:01.939Z,66.31
2023-04-19T12:56:03.505Z,65.06
2023-04-19T13:00:06.145Z,64.12
2023-04-19T13:04:09.181Z,64.26
2023-04-19T13:08:10.672Z,60.14
2023-04-19T13:12:12.009Z,56.37
2023-04-19T13:16:13.398Z,64.03
2023-04-19T13:20:16.221Z,67.39
2023-04-19T13:24:17.978Z,69.01
2023-04-19T13:28:19.604Z,66.75
2023-04-19T13:32:21.005Z,65.12
2023-04-19T13:36:23.742Z,66.29
2023-04-19T13:40:25.087Z,66.67
2023-04-19T13:44:26.457Z,67.47
2023-04-19T13:48:27.875Z,68.41
2023-04-19T13:52:30.590Z,69.98
2023-04-19T13:56:31.949Z,69.36
2023-04-19T14:00:33.385Z,70.65
2023-04-19T14:04:34.879Z,71.66
2023-04-19T14:08:37.706Z,71.71
2023-04-19T14:12:39.046Z,72.81
2023-04-19T14:16:40.452Z,72.75
2023-04-19T14:20:41.958Z,72.08
2023-04-19T14:24:44.700Z,70.66
2023-04-19T14:28:46.066Z,70.41
2023-04-19T14:32:47.760Z,68.70
2023-04-19T14:36:51.017Z,68.91
2023-04-19T14:40:54.336Z,67.88
2023-04-19T14:44:55.727Z,68.53
2023-04-19T14:48:57.064Z,69.12
2023-04-19T14:52:58.417Z,68.20
2023-04-19T14:57:01.222Z,66.44
2023-04-19T15:01:10.290Z,62.35
2023-04-19T15:05:11.850Z,58.03
2023-04-19T15:09:13.324Z,57.32
2023-04-19T15:13:16.068Z,57.45
2023-04-19T15:17:17.479Z,60.46
2023-04-19T15:21:19.060Z,60.98
2023-04-19T15:25:20.465Z,65.65
2023-04-19T15:29:23.182Z,69.15
2023-04-19T15:33:24.580Z,71.41
2023-04-19T15:37:25.963Z,75.15
2023-04-19T15:41:27.810Z,74.13
2023-04-19T15:45:30.596Z,75.54
2023-04-19T15:49:31.951Z,75.23
2023-04-19T15:53:33.296Z,64.03
2023-04-19T15:57:34.674Z,62.04
2023-04-19T16:01:37.457Z,60.27
2023-04-19T16:05:38.853Z,58.87
2023-04-19T16:09:40.193Z,59.61
2023-04-19T16:13:41.718Z,62.02
2023-04-19T16:17:44.490Z,63.90
2023-04-19T16:21:45.918Z,64.27
2023-04-19T16:25:47.416Z,67.96
2023-04-19T16:29:48.753Z,69.25
2023-04-19T16:33:51.634Z,71.02
2023-04-19T16:37:55.200Z,67.63
2023-04-19T16:41:58.136Z,64.46
2023-04-19T16:45:59.595Z,60.42
2023-04-19T16:50:02.543Z,60.89
2023-04-19T16:54:04.022Z,61.83
2023-04-19T16:58:05.362Z,64.68
2023-04-19T17:02:06.861Z,66.83
2023-04-19T17:06:09.713Z,69.07
2023-04-19T17:10:11.605Z,70.12
2023-04-19T17:14:12.980Z,71.52
2023-04-19T17:18:14.446Z,71.18
2023-04-19T17:22:17.306Z,71.62
2023-04-19T17:26:18.690Z,70.67
2023-04-19T17:30:20.096Z,69.90
2023-04-19T17:34:21.477Z,66.60
2023-04-19T17:38:24.211Z,71.94
2023-04-19T17:42:25.684Z,74.43
2023-04-19T17:46:27.254Z,75.93
2023-04-19T17:50:28.666Z,76.14
2023-04-19T17:54:31.394Z,77.54
2023-04-19T17:58:32.778Z,78.51
2023-04-19T18:02:34.450Z,77.76
2023-04-19T18:06:36.223Z,79.26
2023-04-19T18:10:38.954Z,79.90
2023-04-19T18:14:40.342Z,81.12
2023-04-19T18:18:41.729Z,81.18
2023-04-19T18:22:43.550Z,80.29
2023-04-19T18:26:46.301Z,80.58
2023-04-19T18:30:47.849Z,79.61
2023-04-19T18:34:49.208Z,80.42
2023-04-19T18:38:50.617Z,80.06
2023-04-19T18:42:53.474Z,80.46
2023-04-19T18:46:54.868Z,82.06
2023-04-19T18:50:56.709Z,81.66
2023-04-19T18:54:58.080Z,81.44
2023-04-19T18:59:00.865Z,81.02
2023-04-19T19:03:03.901Z,81.45
2023-04-19T19:07:18.203Z,82.12
2023-04-19T19:11:51.920Z,83.39
2023-04-19T19:15:49.596Z,83.28
2023-04-19T19:19:51.055Z,84.10
2023-04-19T19:23:52.578Z,83.51
2023-04-19T19:31:59.629Z,84.45
2023-04-19T19:36:01.649Z,84.33
2023-04-19T19:40:05.351Z,84.41
2023-04-19T19:44:07.479Z,84.01
2023-04-19T19:48:10.267Z,84.17
2023-04-19T19:52:11.760Z,83.64
2023-04-19T19:56:21.476Z,84.50
2023-04-19T20:00:44.081Z,84.77
2023-04-19T20:04:47.405Z,84.48
2023-04-19T20:08:49.014Z,84.85
2023-04-19T20:12:50.506Z,85.32
2023-04-19T20:16:51.989Z,86.24
2023-04-19T20:20:54.726Z,86.92
2023-04-19T20:24:56.077Z,87.42
2023-04-19T20:28:57.496Z,87.23
2023-04-19T20:32:58.946Z,87.07
2023-04-19T20:37:01.734Z,87.36
2023-04-19T20:41:03.138Z,86.98
2023-04-19T20:45:04.798Z,87.78
2023-04-19T20:49:06.169Z,87.76
2023-04-19T20:53:08.911Z,87.98
2023-04-19T20:57:10.289Z,88.49
2023-04-19T21:01:11.771Z,88.67
2023-04-19T21:05:13.201Z,88.08
2023-04-19T21:09:16.210Z,88.04
2023-04-19T21:13:17.701Z,88.53
2023-04-19T21:17:19.126Z,88.82
2023-04-19T21:21:20.481Z,88.99
2023-04-19T21:25:23.240Z,89.24
2023-04-19T21:29:24.612Z,89.71
2023-04-19T21:33:25.964Z,89.67
2023-04-19T21:37:27.448Z,89.17
2023-04-19T21:41:30.182Z,88.80
2023-04-19T21:45:31.526Z,89.10
2023-04-19T21:49:32.967Z,89.10
2023-04-19T21:53:34.375Z,88.89
2023-04-19T21:57:37.106Z,89.70
2023-04-19T22:01:38.452Z,89.25
2023-04-19T22:05:39.839Z,88.96
2023-04-19T22:09:41.186Z,88.67
2023-04-19T22:13:43.969Z,89.09
2023-04-19T22:17:45.386Z,89.15
2023-04-19T22:21:46.777Z,89.17
2023-04-19T22:25:48.138Z,88.90
2023-04-19T22:29:50.873Z,89.73
2023-04-19T22:33:52.223Z,90.01
2023-04-19T22:37:53.579Z,89.53
2023-04-19T22:41:54.935Z,90.38
2023-04-19T22:45:57.699Z,89.98
2023-04-19T22:49:59.086Z,88.26
2023-04-19T22:54:00.719Z,88.70
2023-04-19T22:58:02.069Z,89.52
2023-04-19T23:02:04.841Z,89.39
2023-04-19T23:06:06.482Z,89.56
2023-04-19T23:10:08.541Z,89.63
2023-04-19T23:14:09.921Z,89.17
2023-04-19T23:18:12.627Z,89.38
2023-04-19T23:22:13.983Z,89.59
2023-04-19T23:26:15.402Z,89.36
2023-04-19T23:30:17.292Z,89.51
2023-04-19T23:34:20.031Z,89.73
2023-04-19T23:38:21.433Z,90.19
2023-04-19T23:42:22.799Z,89.71
2023-04-19T23:46:24.186Z,89.67
2023-04-19T23:50:27.038Z,90.34
2023-04-19T23:54:28.363Z,90.91
2023-04-19T23:58:29.737Z,90.05
